sensor_id;sensor_type;location;lat;lon;timestamp;P1;durP1;ratioP1;P2;durP2;ratioP2
54947;SDS011;41113;41.882;12.530;2023-02-28T00:00:33;9.48;;;4.85;;
54947;SDS011;41113;41.882;12.530;2023-02-28T00:02:59;10.15;;;4.93;;
54947;SDS011;41113;41.882;12.530;2023-02-28T00:05:25;13.75;;;5.30;;
54947;SDS011;41113;41.882;12.530;2023-02-28T00:07:53;10.75;;;5.05;;
54947;SDS011;41113;41.882;12.530;2023-02-28T00:10:20;10.52;;;4.88;;
54947;SDS011;41113;41.882;12.530;2023-02-28T00:12:49;8.68;;;4.60;;
54947;SDS011;41113;41.882;12.530;2023-02-28T00:15:16;9.45;;;4.60;;
54947;SDS011;41113;41.882;12.530;2023-02-28T00:17:41;10.55;;;4.78;;
54947;SDS011;41113;41.882;12.530;2023-02-28T00:20:07;10.77;;;5.43;;
54947;SDS011;41113;41.882;12.530;2023-02-28T00:22:35;9.63;;;5.30;;
54947;SDS011;41113;41.882;12.530;2023-02-28T00:25:01;9.13;;;4.13;;
54947;SDS011;41113;41.882;12.530;2023-02-28T00:27:26;9.85;;;4.70;;
54947;SDS011;41113;41.882;12.530;2023-02-28T00:29:52;9.40;;;4.63;;
54947;SDS011;41113;41.882;12.530;2023-02-28T00:32:19;9.20;;;4.15;;
54947;SDS011;41113;41.882;12.530;2023-02-28T00:34:44;8.43;;;4.07;;
54947;SDS011;41113;41.882;12.530;2023-02-28T00:37:09;9.90;;;4.75;;
54947;SDS011;41113;41.882;12.530;2023-02-28T00:39:37;10.02;;;4.63;;
54947;SDS011;41113;41.882;12.530;2023-02-28T00:42:03;10.60;;;4.57;;
54947;SDS011;41113;41.882;12.530;2023-02-28T00:44:31;9.05;;;4.03;;
54947;SDS011;41113;41.882;12.530;2023-02-28T00:46:57;11.57;;;4.50;;
54947;SDS011;41113;41.882;12.530;2023-02-28T00:49:23;10.07;;;5.05;;
54947;SDS011;41113;41.882;12.530;2023-02-28T00:51:49;10.43;;;4.60;;
54947;SDS011;41113;41.882;12.530;2023-02-28T00:54:14;10.90;;;4.57;;
54947;SDS011;41113;41.882;12.530;2023-02-28T00:56:40;10.23;;;4.53;;
54947;SDS011;41113;41.882;12.530;2023-02-28T00:59:07;10.35;;;4.80;;
54947;SDS011;41113;41.882;12.530;2023-02-28T01:01:33;9.98;;;4.88;;
54947;SDS011;41113;41.882;12.530;2023-02-28T01:03:59;11.98;;;5.07;;
54947;SDS011;41113;41.882;12.530;2023-02-28T01:06:24;10.35;;;4.55;;
54947;SDS011;41113;41.882;12.530;2023-02-28T01:08:50;9.65;;;4.65;;
54947;SDS011;41113;41.882;12.530;2023-02-28T01:11:16;9.82;;;4.20;;
54947;SDS011;41113;41.882;12.530;2023-02-28T01:13:42;10.10;;;4.80;;
54947;SDS011;41113;41.882;12.530;2023-02-28T01:16:09;10.15;;;4.90;;
54947;SDS011;41113;41.882;12.530;2023-02-28T01:18:35;9.05;;;4.25;;
54947;SDS011;41113;41.882;12.530;2023-02-28T01:21:07;9.55;;;4.45;;
54947;SDS011;41113;41.882;12.530;2023-02-28T01:23:35;13.43;;;4.90;;
54947;SDS011;41113;41.882;12.530;2023-02-28T01:26:13;10.52;;;5.05;;
54947;SDS011;41113;41.882;12.530;2023-02-28T01:28:41;10.40;;;5.20;;
54947;SDS011;41113;41.882;12.530;2023-02-28T01:31:06;9.73;;;5.10;;
54947;SDS011;41113;41.882;12.530;2023-02-28T01:33:33;11.43;;;5.05;;
54947;SDS011;41113;41.882;12.530;2023-02-28T01:35:59;12.38;;;4.93;;
54947;SDS011;41113;41.882;12.530;2023-02-28T01:38:25;10.15;;;4.75;;
54947;SDS011;41113;41.882;12.530;2023-02-28T01:40:51;12.10;;;5.30;;
54947;SDS011;41113;41.882;12.530;2023-02-28T01:43:24;10.32;;;5.18;;
54947;SDS011;41113;41.882;12.530;2023-02-28T01:45:53;10.10;;;4.88;;
54947;SDS011;41113;41.882;12.530;2023-02-28T01:48:19;10.43;;;5.25;;
54947;SDS011;41113;41.882;12.530;2023-02-28T01:50:49;9.85;;;5.00;;
54947;SDS011;41113;41.882;12.530;2023-02-28T01:53:16;11.18;;;4.97;;
54947;SDS011;41113;41.882;12.530;2023-02-28T01:55:48;10.88;;;4.97;;
54947;SDS011;41113;41.882;12.530;2023-02-28T01:58:17;9.68;;;4.93;;
54947;SDS011;41113;41.882;12.530;2023-02-28T02:00:43;9.90;;;4.95;;
54947;SDS011;41113;41.882;12.530;2023-02-28T02:03:09;9.88;;;5.20;;
54947;SDS011;41113;41.882;12.530;2023-02-28T02:05:38;10.38;;;5.35;;
54947;SDS011;41113;41.882;12.530;2023-02-28T02:08:05;10.20;;;4.88;;
54947;SDS011;41113;41.882;12.530;2023-02-28T02:13:25;11.13;;;5.10;;
54947;SDS011;41113;41.882;12.530;2023-02-28T02:18:51;10.65;;;5.47;;
54947;SDS011;41113;41.882;12.530;2023-02-28T02:37:57;10.30;;;4.93;;
54947;SDS011;41113;41.882;12.530;2023-02-28T02:40:28;11.00;;;5.60;;
54947;SDS011;41113;41.882;12.530;2023-02-28T02:43:01;10.80;;;4.85;;
54947;SDS011;41113;41.882;12.530;2023-02-28T02:45:44;10.10;;;5.10;;
54947;SDS011;41113;41.882;12.530;2023-02-28T02:48:16;9.70;;;5.00;;
54947;SDS011;41113;41.882;12.530;2023-02-28T02:51:06;9.90;;;4.95;;
54947;SDS011;41113;41.882;12.530;2023-02-28T02:53:37;11.10;;;4.75;;
54947;SDS011;41113;41.882;12.530;2023-02-28T02:56:09;12.18;;;5.30;;
54947;SDS011;41113;41.882;12.530;2023-02-28T02:58:39;11.88;;;4.75;;
54947;SDS011;41113;41.882;12.530;2023-02-28T03:01:07;11.48;;;4.97;;
54947;SDS011;41113;41.882;12.530;2023-02-28T03:03:41;9.82;;;4.70;;
54947;SDS011;41113;41.882;12.530;2023-02-28T03:06:08;9.85;;;5.47;;
54947;SDS011;41113;41.882;12.530;2023-02-28T03:08:34;11.32;;;5.35;;
54947;SDS011;41113;41.882;12.530;2023-02-28T03:11:05;10.95;;;5.70;;
54947;SDS011;41113;41.882;12.530;2023-02-28T03:25:21;10.88;;;5.00;;
54947;SDS011;41113;41.882;12.530;2023-02-28T03:28:02;9.32;;;4.50;;
54947;SDS011;41113;41.882;12.530;2023-02-28T03:30:35;10.38;;;4.60;;
54947;SDS011;41113;41.882;12.530;2023-02-28T03:33:22;9.65;;;4.57;;
54947;SDS011;41113;41.882;12.530;2023-02-28T03:35:57;8.43;;;4.30;;
54947;SDS011;41113;41.882;12.530;2023-02-28T03:38:42;9.52;;;4.05;;
54947;SDS011;41113;41.882;12.530;2023-02-28T03:41:21;9.57;;;4.25;;
54947;SDS011;41113;41.882;12.530;2023-02-28T03:43:56;8.68;;;3.85;;
54947;SDS011;41113;41.882;12.530;2023-02-28T03:46:27;10.20;;;4.63;;
54947;SDS011;41113;41.882;12.530;2023-02-28T03:49:09;9.18;;;4.03;;
54947;SDS011;41113;41.882;12.530;2023-02-28T03:51:45;10.27;;;4.10;;
54947;SDS011;41113;41.882;12.530;2023-02-28T03:54:14;11.73;;;4.40;;
54947;SDS011;41113;41.882;12.530;2023-02-28T03:56:46;9.32;;;4.03;;
54947;SDS011;41113;41.882;12.530;2023-02-28T04:01:55;11.90;;;3.92;;
54947;SDS011;41113;41.882;12.530;2023-02-28T04:04:24;7.47;;;2.93;;
54947;SDS011;41113;41.882;12.530;2023-02-28T04:06:50;9.57;;;3.97;;
54947;SDS011;41113;41.882;12.530;2023-02-28T04:09:17;10.45;;;3.90;;
54947;SDS011;41113;41.882;12.530;2023-02-28T04:11:50;9.65;;;3.83;;
54947;SDS011;41113;41.882;12.530;2023-02-28T04:14:17;9.57;;;4.13;;
54947;SDS011;41113;41.882;12.530;2023-02-28T04:16:42;9.77;;;4.20;;
54947;SDS011;41113;41.882;12.530;2023-02-28T04:19:08;9.23;;;4.05;;
54947;SDS011;41113;41.882;12.530;2023-02-28T04:21:36;10.32;;;4.28;;
54947;SDS011;41113;41.882;12.530;2023-02-28T04:24:11;11.30;;;3.92;;
54947;SDS011;41113;41.882;12.530;2023-02-28T04:26:42;9.70;;;4.18;;
54947;SDS011;41113;41.882;12.530;2023-02-28T04:29:10;9.63;;;4.32;;
54947;SDS011;41113;41.882;12.530;2023-02-28T04:31:37;10.82;;;3.90;;
54947;SDS011;41113;41.882;12.530;2023-02-28T04:34:03;9.70;;;4.10;;
54947;SDS011;41113;41.882;12.530;2023-02-28T04:36:28;11.32;;;4.20;;
54947;SDS011;41113;41.882;12.530;2023-02-28T04:38:54;10.57;;;3.90;;
54947;SDS011;41113;41.882;12.530;2023-02-28T04:41:19;11.15;;;4.03;;
54947;SDS011;41113;41.882;12.530;2023-02-28T04:43:45;9.07;;;3.80;;
54947;SDS011;41113;41.882;12.530;2023-02-28T04:46:11;11.70;;;4.30;;
54947;SDS011;41113;41.882;12.530;2023-02-28T04:48:37;11.32;;;3.55;;
54947;SDS011;41113;41.882;12.530;2023-02-28T04:51:05;11.45;;;4.10;;
54947;SDS011;41113;41.882;12.530;2023-02-28T04:53:36;8.57;;;3.28;;
54947;SDS011;41113;41.882;12.530;2023-02-28T04:56:02;9.52;;;4.18;;
54947;SDS011;41113;41.882;12.530;2023-02-28T04:58:28;9.95;;;4.25;;
54947;SDS011;41113;41.882;12.530;2023-02-28T05:00:57;9.63;;;3.88;;
54947;SDS011;41113;41.882;12.530;2023-02-28T05:03:27;10.43;;;3.63;;
54947;SDS011;41113;41.882;12.530;2023-02-28T05:05:53;11.00;;;4.03;;
54947;SDS011;41113;41.882;12.530;2023-02-28T05:08:18;9.45;;;3.33;;
54947;SDS011;41113;41.882;12.530;2023-02-28T05:10:43;9.82;;;3.97;;
54947;SDS011;41113;41.882;12.530;2023-02-28T05:13:11;9.98;;;3.83;;
54947;SDS011;41113;41.882;12.530;2023-02-28T05:15:40;11.48;;;4.03;;
54947;SDS011;41113;41.882;12.530;2023-02-28T05:18:05;9.32;;;3.72;;
54947;SDS011;41113;41.882;12.530;2023-02-28T05:20:33;8.98;;;3.40;;
54947;SDS011;41113;41.882;12.530;2023-02-28T05:22:58;8.65;;;3.42;;
54947;SDS011;41113;41.882;12.530;2023-02-28T05:25:25;9.23;;;3.63;;
54947;SDS011;41113;41.882;12.530;2023-02-28T05:28:05;8.30;;;3.05;;
54947;SDS011;41113;41.882;12.530;2023-02-28T05:30:30;9.63;;;3.42;;
54947;SDS011;41113;41.882;12.530;2023-02-28T05:32:57;9.02;;;3.45;;
54947;SDS011;41113;41.882;12.530;2023-02-28T05:35:23;8.43;;;3.35;;
54947;SDS011;41113;41.882;12.530;2023-02-28T05:37:49;11.20;;;3.38;;
54947;SDS011;41113;41.882;12.530;2023-02-28T05:40:15;10.07;;;3.35;;
54947;SDS011;41113;41.882;12.530;2023-02-28T05:42:41;8.20;;;3.30;;
54947;SDS011;41113;41.882;12.530;2023-02-28T05:45:07;9.52;;;3.55;;
54947;SDS011;41113;41.882;12.530;2023-02-28T05:47:33;11.32;;;3.78;;
54947;SDS011;41113;41.882;12.530;2023-02-28T05:49:59;9.15;;;3.67;;
54947;SDS011;41113;41.882;12.530;2023-02-28T05:52:25;10.45;;;3.40;;
54947;SDS011;41113;41.882;12.530;2023-02-28T05:54:50;10.25;;;3.65;;
54947;SDS011;41113;41.882;12.530;2023-02-28T05:57:16;9.95;;;3.97;;
54947;SDS011;41113;41.882;12.530;2023-02-28T05:59:41;10.23;;;3.53;;
54947;SDS011;41113;41.882;12.530;2023-02-28T06:02:10;8.98;;;3.35;;
54947;SDS011;41113;41.882;12.530;2023-02-28T06:04:39;9.25;;;3.70;;
54947;SDS011;41113;41.882;12.530;2023-02-28T06:07:05;10.57;;;3.92;;
54947;SDS011;41113;41.882;12.530;2023-02-28T06:09:31;10.05;;;3.45;;
54947;SDS011;41113;41.882;12.530;2023-02-28T06:12:00;10.82;;;4.20;;
54947;SDS011;41113;41.882;12.530;2023-02-28T06:14:31;9.98;;;4.03;;
54947;SDS011;41113;41.882;12.530;2023-02-28T06:16:57;11.50;;;4.45;;
54947;SDS011;41113;41.882;12.530;2023-02-28T06:19:23;10.50;;;3.70;;
54947;SDS011;41113;41.882;12.530;2023-02-28T06:21:50;9.77;;;4.22;;
54947;SDS011;41113;41.882;12.530;2023-02-28T06:24:17;9.68;;;4.13;;
54947;SDS011;41113;41.882;12.530;2023-02-28T06:26:46;9.75;;;4.40;;
54947;SDS011;41113;41.882;12.530;2023-02-28T06:29:12;9.25;;;3.40;;
54947;SDS011;41113;41.882;12.530;2023-02-28T06:31:41;10.50;;;3.78;;
54947;SDS011;41113;41.882;12.530;2023-02-28T06:34:08;10.88;;;4.05;;
54947;SDS011;41113;41.882;12.530;2023-02-28T06:36:36;11.77;;;3.72;;
54947;SDS011;41113;41.882;12.530;2023-02-28T06:39:02;10.73;;;4.32;;
54947;SDS011;41113;41.882;12.530;2023-02-28T06:41:31;10.07;;;4.57;;
54947;SDS011;41113;41.882;12.530;2023-02-28T06:44:02;10.75;;;4.80;;
54947;SDS011;41113;41.882;12.530;2023-02-28T06:46:39;14.23;;;4.47;;
54947;SDS011;41113;41.882;12.530;2023-02-28T06:49:09;12.38;;;5.07;;
54947;SDS011;41113;41.882;12.530;2023-02-28T06:51:36;11.35;;;4.68;;
54947;SDS011;41113;41.882;12.530;2023-02-28T06:54:03;13.30;;;4.72;;
54947;SDS011;41113;41.882;12.530;2023-02-28T06:56:28;12.57;;;4.55;;
54947;SDS011;41113;41.882;12.530;2023-02-28T06:58:54;15.63;;;5.70;;
54947;SDS011;41113;41.882;12.530;2023-02-28T07:01:20;12.32;;;5.80;;
54947;SDS011;41113;41.882;12.530;2023-02-28T07:03:47;14.25;;;5.85;;
54947;SDS011;41113;41.882;12.530;2023-02-28T07:06:17;13.40;;;6.95;;
54947;SDS011;41113;41.882;12.530;2023-02-28T07:08:43;13.82;;;6.80;;
54947;SDS011;41113;41.882;12.530;2023-02-28T07:11:09;13.98;;;7.03;;
54947;SDS011;41113;41.882;12.530;2023-02-28T07:13:35;12.00;;;6.40;;
54947;SDS011;41113;41.882;12.530;2023-02-28T07:16:01;15.57;;;7.20;;
54947;SDS011;41113;41.882;12.530;2023-02-28T07:18:28;12.68;;;6.30;;
54947;SDS011;41113;41.882;12.530;2023-02-28T07:20:54;11.70;;;5.65;;
54947;SDS011;41113;41.882;12.530;2023-02-28T07:23:20;9.85;;;5.00;;
54947;SDS011;41113;41.882;12.530;2023-02-28T07:25:46;12.52;;;5.20;;
54947;SDS011;41113;41.882;12.530;2023-02-28T07:28:12;9.40;;;4.57;;
54947;SDS011;41113;41.882;12.530;2023-02-28T07:30:38;11.50;;;4.93;;
54947;SDS011;41113;41.882;12.530;2023-02-28T07:33:04;11.25;;;4.18;;
54947;SDS011;41113;41.882;12.530;2023-02-28T07:35:31;11.75;;;4.50;;
54947;SDS011;41113;41.882;12.530;2023-02-28T07:37:57;10.20;;;4.63;;
54947;SDS011;41113;41.882;12.530;2023-02-28T07:40:24;10.02;;;4.53;;
54947;SDS011;41113;41.882;12.530;2023-02-28T07:42:51;10.40;;;5.00;;
54947;SDS011;41113;41.882;12.530;2023-02-28T07:45:16;10.88;;;4.75;;
54947;SDS011;41113;41.882;12.530;2023-02-28T07:47:42;11.07;;;4.80;;
54947;SDS011;41113;41.882;12.530;2023-02-28T07:50:10;11.57;;;4.80;;
54947;SDS011;41113;41.882;12.530;2023-02-28T07:52:39;12.98;;;5.50;;
54947;SDS011;41113;41.882;12.530;2023-02-28T07:55:06;14.50;;;5.97;;
54947;SDS011;41113;41.882;12.530;2023-02-28T07:57:33;12.88;;;4.72;;
54947;SDS011;41113;41.882;12.530;2023-02-28T07:59:58;9.43;;;4.47;;
54947;SDS011;41113;41.882;12.530;2023-02-28T08:02:24;11.55;;;4.40;;
54947;SDS011;41113;41.882;12.530;2023-02-28T08:04:50;11.50;;;4.47;;
54947;SDS011;41113;41.882;12.530;2023-02-28T08:07:16;12.82;;;4.90;;
54947;SDS011;41113;41.882;12.530;2023-02-28T08:09:42;11.95;;;4.75;;
54947;SDS011;41113;41.882;12.530;2023-02-28T08:12:08;12.00;;;4.88;;
54947;SDS011;41113;41.882;12.530;2023-02-28T08:14:34;9.93;;;4.28;;
54947;SDS011;41113;41.882;12.530;2023-02-28T08:17:00;13.18;;;4.53;;
54947;SDS011;41113;41.882;12.530;2023-02-28T08:19:26;12.43;;;4.68;;
54947;SDS011;41113;41.882;12.530;2023-02-28T08:21:51;13.20;;;4.50;;
54947;SDS011;41113;41.882;12.530;2023-02-28T08:24:17;14.25;;;4.97;;
54947;SDS011;41113;41.882;12.530;2023-02-28T08:26:42;12.77;;;4.97;;
54947;SDS011;41113;41.882;12.530;2023-02-28T08:29:07;13.38;;;5.65;;
54947;SDS011;41113;41.882;12.530;2023-02-28T08:31:33;10.60;;;4.93;;
54947;SDS011;41113;41.882;12.530;2023-02-28T08:34:04;13.98;;;4.75;;
54947;SDS011;41113;41.882;12.530;2023-02-28T08:36:30;15.15;;;5.57;;
54947;SDS011;41113;41.882;12.530;2023-02-28T08:38:56;12.82;;;5.75;;
54947;SDS011;41113;41.882;12.530;2023-02-28T08:41:23;11.18;;;4.90;;
54947;SDS011;41113;41.882;12.530;2023-02-28T08:43:48;11.65;;;4.63;;
54947;SDS011;41113;41.882;12.530;2023-02-28T08:46:13;10.77;;;4.57;;
54947;SDS011;41113;41.882;12.530;2023-02-28T08:48:39;11.18;;;3.85;;
54947;SDS011;41113;41.882;12.530;2023-02-28T08:51:08;9.68;;;4.10;;
54947;SDS011;41113;41.882;12.530;2023-02-28T08:53:36;12.60;;;4.05;;
54947;SDS011;41113;41.882;12.530;2023-02-28T08:56:03;9.38;;;3.58;;
54947;SDS011;41113;41.882;12.530;2023-02-28T08:58:33;8.05;;;3.25;;
54947;SDS011;41113;41.882;12.530;2023-02-28T09:00:59;11.98;;;3.92;;
54947;SDS011;41113;41.882;12.530;2023-02-28T09:03:25;11.20;;;3.05;;
54947;SDS011;41113;41.882;12.530;2023-02-28T09:05:59;9.65;;;2.85;;
54947;SDS011;41113;41.882;12.530;2023-02-28T09:08:26;9.77;;;3.88;;
54947;SDS011;41113;41.882;12.530;2023-02-28T09:10:53;10.50;;;3.30;;
54947;SDS011;41113;41.882;12.530;2023-02-28T09:13:19;10.25;;;3.40;;
54947;SDS011;41113;41.882;12.530;2023-02-28T09:15:45;11.85;;;3.65;;
54947;SDS011;41113;41.882;12.530;2023-02-28T09:18:10;11.73;;;3.40;;
54947;SDS011;41113;41.882;12.530;2023-02-28T09:20:39;10.80;;;3.28;;
54947;SDS011;41113;41.882;12.530;2023-02-28T09:23:06;7.95;;;3.10;;
54947;SDS011;41113;41.882;12.530;2023-02-28T09:25:33;11.15;;;3.30;;
54947;SDS011;41113;41.882;12.530;2023-02-28T09:27:59;9.05;;;2.80;;
54947;SDS011;41113;41.882;12.530;2023-02-28T09:30:24;9.50;;;3.80;;
54947;SDS011;41113;41.882;12.530;2023-02-28T09:32:49;8.07;;;2.80;;
54947;SDS011;41113;41.882;12.530;2023-02-28T09:35:18;8.88;;;2.75;;
54947;SDS011;41113;41.882;12.530;2023-02-28T09:37:46;12.00;;;3.60;;
54947;SDS011;41113;41.882;12.530;2023-02-28T09:40:12;11.48;;;3.20;;
54947;SDS011;41113;41.882;12.530;2023-02-28T09:42:39;9.98;;;2.90;;
54947;SDS011;41113;41.882;12.530;2023-02-28T09:45:07;9.20;;;2.83;;
54947;SDS011;41113;41.882;12.530;2023-02-28T09:47:41;10.77;;;2.60;;
54947;SDS011;41113;41.882;12.530;2023-02-28T09:50:17;7.65;;;3.08;;
54947;SDS011;41113;41.882;12.530;2023-02-28T09:52:53;11.63;;;2.65;;
54947;SDS011;41113;41.882;12.530;2023-02-28T09:55:30;8.40;;;2.78;;
54947;SDS011;41113;41.882;12.530;2023-02-28T09:58:02;11.57;;;3.35;;
54947;SDS011;41113;41.882;12.530;2023-02-28T10:00:36;9.23;;;2.75;;
54947;SDS011;41113;41.882;12.530;2023-02-28T10:03:24;8.50;;;2.75;;
54947;SDS011;41113;41.882;12.530;2023-02-28T10:06:02;9.70;;;2.97;;
54947;SDS011;41113;41.882;12.530;2023-02-28T10:08:40;10.93;;;2.58;;
54947;SDS011;41113;41.882;12.530;2023-02-28T10:11:17;10.38;;;2.67;;
54947;SDS011;41113;41.882;12.530;2023-02-28T10:13:50;5.68;;;2.00;;
54947;SDS011;41113;41.882;12.530;2023-02-28T10:16:25;7.53;;;2.28;;
54947;SDS011;41113;41.882;12.530;2023-02-28T10:18:59;8.45;;;2.10;;
54947;SDS011;41113;41.882;12.530;2023-02-28T10:21:28;7.07;;;2.20;;
54947;SDS011;41113;41.882;12.530;2023-02-28T10:24:03;7.32;;;2.20;;
54947;SDS011;41113;41.882;12.530;2023-02-28T10:26:43;7.20;;;2.10;;
54947;SDS011;41113;41.882;12.530;2023-02-28T10:29:12;7.85;;;2.22;;
54947;SDS011;41113;41.882;12.530;2023-02-28T10:31:37;8.27;;;2.40;;
54947;SDS011;41113;41.882;12.530;2023-02-28T10:34:04;7.90;;;2.40;;
54947;SDS011;41113;41.882;12.530;2023-02-28T10:36:31;7.88;;;2.95;;
54947;SDS011;41113;41.882;12.530;2023-02-28T10:38:57;7.18;;;2.78;;
54947;SDS011;41113;41.882;12.530;2023-02-28T10:41:29;8.45;;;2.30;;
54947;SDS011;41113;41.882;12.530;2023-02-28T10:46:56;7.38;;;2.10;;
54947;SDS011;41113;41.882;12.530;2023-02-28T10:49:31;9.02;;;2.83;;
54947;SDS011;41113;41.882;12.530;2023-02-28T10:51:57;9.45;;;2.30;;
54947;SDS011;41113;41.882;12.530;2023-02-28T10:54:32;9.57;;;2.47;;
54947;SDS011;41113;41.882;12.530;2023-02-28T10:59:50;8.85;;;2.50;;
54947;SDS011;41113;41.882;12.530;2023-02-28T11:02:31;10.00;;;2.60;;
54947;SDS011;41113;41.882;12.530;2023-02-28T11:04:59;7.57;;;2.53;;
54947;SDS011;41113;41.882;12.530;2023-02-28T11:07:25;8.43;;;2.63;;
54947;SDS011;41113;41.882;12.530;2023-02-28T11:09:53;8.43;;;2.80;;
54947;SDS011;41113;41.882;12.530;2023-02-28T11:12:26;9.10;;;2.70;;
54947;SDS011;41113;41.882;12.530;2023-02-28T11:15:04;8.70;;;2.70;;
54947;SDS011;41113;41.882;12.530;2023-02-28T11:17:42;10.32;;;2.67;;
54947;SDS011;41113;41.882;12.530;2023-02-28T11:20:10;8.82;;;2.45;;
54947;SDS011;41113;41.882;12.530;2023-02-28T11:22:44;7.63;;;2.47;;
54947;SDS011;41113;41.882;12.530;2023-02-28T11:28:01;6.22;;;2.00;;
54947;SDS011;41113;41.882;12.530;2023-02-28T11:33:01;7.72;;;2.20;;
54947;SDS011;41113;41.882;12.530;2023-02-28T11:36:10;9.07;;;3.08;;
54947;SDS011;41113;41.882;12.530;2023-02-28T11:38:39;8.15;;;2.70;;
54947;SDS011;41113;41.882;12.530;2023-02-28T11:41:09;8.90;;;2.97;;
54947;SDS011;41113;41.882;12.530;2023-02-28T11:46:47;10.60;;;2.95;;
54947;SDS011;41113;41.882;12.530;2023-02-28T12:13:35;9.52;;;2.72;;
54947;SDS011;41113;41.882;12.530;2023-02-28T12:18:53;8.70;;;2.10;;
54947;SDS011;41113;41.882;12.530;2023-02-28T12:26:48;11.80;;;2.53;;
54947;SDS011;41113;41.882;12.530;2023-02-28T12:29:23;13.05;;;2.72;;
54947;SDS011;41113;41.882;12.530;2023-02-28T12:32:11;8.07;;;2.10;;
54947;SDS011;41113;41.882;12.530;2023-02-28T12:34:51;6.25;;;1.90;;
54947;SDS011;41113;41.882;12.530;2023-02-28T12:37:22;13.73;;;4.40;;
54947;SDS011;41113;41.882;12.530;2023-02-28T12:39:54;15.43;;;4.80;;
54947;SDS011;41113;41.882;12.530;2023-02-28T12:42:27;12.65;;;4.10;;
54947;SDS011;41113;41.882;12.530;2023-02-28T12:47:26;13.25;;;3.75;;
54947;SDS011;41113;41.882;12.530;2023-02-28T12:50:07;10.93;;;2.50;;
54947;SDS011;41113;41.882;12.530;2023-02-28T12:52:41;11.45;;;2.60;;
54947;SDS011;41113;41.882;12.530;2023-02-28T12:55:13;4.40;;;1.63;;
54947;SDS011;41113;41.882;12.530;2023-02-28T13:09:06;11.13;;;2.30;;
54947;SDS011;41113;41.882;12.530;2023-02-28T13:14:37;10.85;;;2.28;;
54947;SDS011;41113;41.882;12.530;2023-02-28T13:17:14;13.10;;;2.55;;
54947;SDS011;41113;41.882;12.530;2023-02-28T13:22:16;10.70;;;2.60;;
54947;SDS011;41113;41.882;12.530;2023-02-28T13:24:54;9.70;;;2.60;;
54947;SDS011;41113;41.882;12.530;2023-02-28T13:29:50;11.23;;;3.03;;
54947;SDS011;41113;41.882;12.530;2023-02-28T13:32:31;9.65;;;2.97;;
54947;SDS011;41113;41.882;12.530;2023-02-28T13:37:32;9.82;;;3.03;;
54947;SDS011;41113;41.882;12.530;2023-02-28T13:47:35;7.07;;;2.20;;
54947;SDS011;41113;41.882;12.530;2023-02-28T13:55:56;15.25;;;3.15;;
54947;SDS011;41113;41.882;12.530;2023-02-28T13:58:58;13.90;;;2.85;;
54947;SDS011;41113;41.882;12.530;2023-02-28T14:07:23;14.30;;;3.15;;
54947;SDS011;41113;41.882;12.530;2023-02-28T14:09:56;11.50;;;2.72;;
54947;SDS011;41113;41.882;12.530;2023-02-28T14:18:19;10.45;;;2.88;;
54947;SDS011;41113;41.882;12.530;2023-02-28T14:20:49;12.50;;;3.83;;
54947;SDS011;41113;41.882;12.530;2023-02-28T14:23:22;12.45;;;3.55;;
54947;SDS011;41113;41.882;12.530;2023-02-28T14:31:09;11.70;;;2.90;;
54947;SDS011;41113;41.882;12.530;2023-02-28T14:36:36;11.57;;;2.88;;
54947;SDS011;41113;41.882;12.530;2023-02-28T14:39:06;13.43;;;2.88;;
54947;SDS011;41113;41.882;12.530;2023-02-28T14:41:38;10.38;;;2.90;;
54947;SDS011;41113;41.882;12.530;2023-02-28T14:46:54;12.20;;;2.88;;
54947;SDS011;41113;41.882;12.530;2023-02-28T14:49:34;12.30;;;2.85;;
54947;SDS011;41113;41.882;12.530;2023-02-28T14:54:45;10.75;;;2.83;;
54947;SDS011;41113;41.882;12.530;2023-02-28T14:57:24;13.00;;;2.83;;
54947;SDS011;41113;41.882;12.530;2023-02-28T15:00:03;12.75;;;2.95;;
54947;SDS011;41113;41.882;12.530;2023-02-28T15:02:43;10.50;;;2.95;;
54947;SDS011;41113;41.882;12.530;2023-02-28T15:07:37;12.15;;;2.58;;
54947;SDS011;41113;41.882;12.530;2023-02-28T15:12:57;11.48;;;4.13;;
54947;SDS011;41113;41.882;12.530;2023-02-28T15:15:25;14.90;;;3.72;;
54947;SDS011;41113;41.882;12.530;2023-02-28T15:17:59;12.05;;;3.60;;
54947;SDS011;41113;41.882;12.530;2023-02-28T15:20:30;11.55;;;3.58;;
54947;SDS011;41113;41.882;12.530;2023-02-28T15:23:01;9.82;;;3.45;;
54947;SDS011;41113;41.882;12.530;2023-02-28T15:25:27;15.65;;;3.88;;
54947;SDS011;41113;41.882;12.530;2023-02-28T15:27:56;13.48;;;3.72;;
54947;SDS011;41113;41.882;12.530;2023-02-28T15:35:50;12.48;;;4.22;;
54947;SDS011;41113;41.882;12.530;2023-02-28T15:38:18;13.90;;;4.53;;
54947;SDS011;41113;41.882;12.530;2023-02-28T15:40:56;15.57;;;4.43;;
54947;SDS011;41113;41.882;12.530;2023-02-28T15:46:13;12.98;;;4.20;;
54947;SDS011;41113;41.882;12.530;2023-02-28T15:48:55;12.07;;;3.90;;
54947;SDS011;41113;41.882;12.530;2023-02-28T15:51:26;10.65;;;4.03;;
54947;SDS011;41113;41.882;12.530;2023-02-28T15:58:56;11.70;;;3.95;;
54947;SDS011;41113;41.882;12.530;2023-02-28T16:01:29;13.55;;;4.47;;
54947;SDS011;41113;41.882;12.530;2023-02-28T16:04:01;12.90;;;4.43;;
54947;SDS011;41113;41.882;12.530;2023-02-28T16:06:33;11.63;;;4.50;;
54947;SDS011;41113;41.882;12.530;2023-02-28T16:09:02;13.18;;;4.25;;
54947;SDS011;41113;41.882;12.530;2023-02-28T16:11:29;9.65;;;3.55;;
54947;SDS011;41113;41.882;12.530;2023-02-28T16:13:55;11.20;;;4.05;;
54947;SDS011;41113;41.882;12.530;2023-02-28T16:16:23;13.40;;;4.00;;
54947;SDS011;41113;41.882;12.530;2023-02-28T16:18:51;11.45;;;3.90;;
54947;SDS011;41113;41.882;12.530;2023-02-28T16:21:16;16.00;;;4.53;;
54947;SDS011;41113;41.882;12.530;2023-02-28T16:23:42;12.82;;;4.45;;
54947;SDS011;41113;41.882;12.530;2023-02-28T16:26:07;12.68;;;3.72;;
54947;SDS011;41113;41.882;12.530;2023-02-28T16:28:35;12.38;;;4.22;;
54947;SDS011;41113;41.882;12.530;2023-02-28T16:31:05;10.85;;;3.42;;
54947;SDS011;41113;41.882;12.530;2023-02-28T16:33:33;10.55;;;3.42;;
54947;SDS011;41113;41.882;12.530;2023-02-28T16:35:59;11.13;;;2.80;;
54947;SDS011;41113;41.882;12.530;2023-02-28T16:38:25;10.90;;;2.90;;
54947;SDS011;41113;41.882;12.530;2023-02-28T16:40:51;9.60;;;2.75;;
54947;SDS011;41113;41.882;12.530;2023-02-28T16:43:22;10.90;;;3.08;;
54947;SDS011;41113;41.882;12.530;2023-02-28T16:48:19;9.43;;;2.72;;
54947;SDS011;41113;41.882;12.530;2023-02-28T16:53:49;131.25;;;66.60;;
54947;SDS011;41113;41.882;12.530;2023-02-28T16:56:18;96.45;;;47.85;;
54947;SDS011;41113;41.882;12.530;2023-02-28T16:58:54;40.72;;;23.27;;
54947;SDS011;41113;41.882;12.530;2023-02-28T17:01:24;37.40;;;20.85;;
54947;SDS011;41113;41.882;12.530;2023-02-28T17:04:02;21.98;;;9.98;;
54947;SDS011;41113;41.882;12.530;2023-02-28T17:06:28;23.75;;;13.32;;
54947;SDS011;41113;41.882;12.530;2023-02-28T17:08:54;18.90;;;8.70;;
54947;SDS011;41113;41.882;12.530;2023-02-28T17:11:25;12.55;;;4.93;;
54947;SDS011;41113;41.882;12.530;2023-02-28T17:13:54;81.22;;;42.60;;
54947;SDS011;41113;41.882;12.530;2023-02-28T17:16:28;91.80;;;49.80;;
54947;SDS011;41113;41.882;12.530;2023-02-28T17:21:46;80.88;;;46.22;;
54947;SDS011;41113;41.882;12.530;2023-02-28T17:24:11;29.38;;;16.15;;
54947;SDS011;41113;41.882;12.530;2023-02-28T17:26:44;29.70;;;17.48;;
54947;SDS011;41113;41.882;12.530;2023-02-28T17:29:17;12.85;;;6.85;;
54947;SDS011;41113;41.882;12.530;2023-02-28T17:31:49;12.45;;;4.70;;